RBK weather

French Valley Airport
Murrieta/Temecula, California, United States

Public forecast

Using degrees Fahrenheit for public forecast. Weather courtesy of forecast.io.

Current aviation weather report (METAR) for French Valley Airport

Retrieved UTC (0 seconds ago):

Closest aviation forecast (TAF) to French Valley Airport

Closest forecast is March ARB Airport, 19.5 nm (36.2 km) NNW. Retrieved 2020-07-05 04:18 UTC (6 hours ago):

TAF KRIV 050402Z 0504/0610 VRB06KT 9999 SKC QNH2995INS BECMG 0518/0519 31012KT 9999 FEW100 510009 QNH2985INS TEMPO 0520/0602 31012G20KT BECMG 0604/0605 VRB06KT 9999 SKC QNH2989INS TX37/0522Z TN14/0513Z